sensor_id;sensor_type;location;lat;lon;timestamp;pressure;altitude;pressure_sealevel;temperature;humidity
35226;BME280;21813;49.686;21.766;2022-10-10T00:02:10;99547.50;;;4.24;100.00
35226;BME280;21813;49.686;21.766;2022-10-10T00:04:49;99550.22;;;4.21;100.00
35226;BME280;21813;49.686;21.766;2022-10-10T00:07:19;99556.44;;;4.15;100.00
35226;BME280;21813;49.686;21.766;2022-10-10T00:09:45;99549.72;;;4.10;100.00
35226;BME280;21813;49.686;21.766;2022-10-10T00:12:37;99542.31;;;4.00;100.00
35226;BME280;21813;49.686;21.766;2022-10-10T00:15:04;99544.09;;;3.98;100.00
35226;BME280;21813;49.686;21.766;2022-10-10T00:17:31;99546.81;;;3.94;100.00
35226;BME280;21813;49.686;21.766;2022-10-10T00:19:57;99541.78;;;3.91;100.00
35226;BME280;21813;49.686;21.766;2022-10-10T00:22:27;99540.22;;;3.87;100.00
35226;BME280;21813;49.686;21.766;2022-10-10T00:24:56;99534.25;;;3.85;100.00
35226;BME280;21813;49.686;21.766;2022-10-10T00:27:22;99539.56;;;3.80;100.00
35226;BME280;21813;49.686;21.766;2022-10-10T00:29:51;99538.69;;;3.81;100.00
35226;BME280;21813;49.686;21.766;2022-10-10T00:32:18;99532.94;;;3.73;100.00
35226;BME280;21813;49.686;21.766;2022-10-10T00:34:46;99538.00;;;3.76;100.00
35226;BME280;21813;49.686;21.766;2022-10-10T00:37:12;99538.09;;;3.73;100.00
35226;BME280;21813;49.686;21.766;2022-10-10T00:39:38;99533.88;;;3.71;100.00
35226;BME280;21813;49.686;21.766;2022-10-10T00:42:05;99531.25;;;3.72;100.00
35226;BME280;21813;49.686;21.766;2022-10-10T00:44:45;99534.72;;;3.71;100.00
35226;BME280;21813;49.686;21.766;2022-10-10T00:47:22;99536.53;;;3.69;100.00
35226;BME280;21813;49.686;21.766;2022-10-10T00:49:47;99543.25;;;3.73;100.00
35226;BME280;21813;49.686;21.766;2022-10-10T00:52:23;99539.78;;;3.74;100.00
35226;BME280;21813;49.686;21.766;2022-10-10T00:54:51;99523.72;;;3.66;100.00
35226;BME280;21813;49.686;21.766;2022-10-10T00:57:26;99531.38;;;3.69;100.00
35226;BME280;21813;49.686;21.766;2022-10-10T00:59:52;99529.66;;;3.68;100.00
35226;BME280;21813;49.686;21.766;2022-10-10T01:02:25;99531.25;;;3.72;100.00
35226;BME280;21813;49.686;21.766;2022-10-10T01:04:56;99522.81;;;3.67;100.00
35226;BME280;21813;49.686;21.766;2022-10-10T01:07:37;99512.63;;;3.64;100.00
35226;BME280;21813;49.686;21.766;2022-10-10T01:10:21;99512.72;;;3.61;100.00
35226;BME280;21813;49.686;21.766;2022-10-10T01:18:44;99516.69;;;3.45;100.00
35226;BME280;21813;49.686;21.766;2022-10-10T01:21:41;99515.31;;;3.35;100.00
35226;BME280;21813;49.686;21.766;2022-10-10T01:27:42;99508.97;;;3.19;100.00
35226;BME280;21813;49.686;21.766;2022-10-10T01:30:25;99502.44;;;3.08;100.00
35226;BME280;21813;49.686;21.766;2022-10-10T01:33:20;99506.06;;;3.01;100.00
35226;BME280;21813;49.686;21.766;2022-10-10T01:36:10;99495.97;;;2.95;100.00
35226;BME280;21813;49.686;21.766;2022-10-10T01:41:35;99500.34;;;2.92;100.00
35226;BME280;21813;49.686;21.766;2022-10-10T01:44:07;99504.59;;;2.94;100.00
35226;BME280;21813;49.686;21.766;2022-10-10T01:46:36;99504.59;;;2.94;100.00
35226;BME280;21813;49.686;21.766;2022-10-10T01:49:01;99497.63;;;2.96;100.00
35226;BME280;21813;49.686;21.766;2022-10-10T02:04:07;99475.84;;;2.80;100.00
35226;BME280;21813;49.686;21.766;2022-10-10T02:06:42;99469.16;;;2.75;100.00
35226;BME280;21813;49.686;21.766;2022-10-10T02:09:18;99462.56;;;2.66;100.00
35226;BME280;21813;49.686;21.766;2022-10-10T02:12:20;99464.41;;;2.61;100.00
35226;BME280;21813;49.686;21.766;2022-10-10T02:15:29;99467.09;;;2.58;100.00
35226;BME280;21813;49.686;21.766;2022-10-10T02:18:04;99474.00;;;2.56;100.00
35226;BME280;21813;49.686;21.766;2022-10-10T02:20:32;99465.50;;;2.54;100.00
35226;BME280;21813;49.686;21.766;2022-10-10T02:23:20;99467.97;;;2.57;100.00
35226;BME280;21813;49.686;21.766;2022-10-10T02:25:56;99473.13;;;2.57;100.00
35226;BME280;21813;49.686;21.766;2022-10-10T02:32:50;99469.13;;;2.47;100.00
35226;BME280;21813;49.686;21.766;2022-10-10T02:35:34;99472.69;;;2.43;100.00
35226;BME280;21813;49.686;21.766;2022-10-10T02:38:10;99464.97;;;2.43;100.00
35226;BME280;21813;49.686;21.766;2022-10-10T02:40:47;99471.72;;;2.47;100.00
35226;BME280;21813;49.686;21.766;2022-10-10T02:43:17;99462.28;;;2.46;100.00
35226;BME280;21813;49.686;21.766;2022-10-10T02:48:33;99454.84;;;2.37;100.00
35226;BME280;21813;49.686;21.766;2022-10-10T02:51:02;99455.81;;;2.34;100.00
35226;BME280;21813;49.686;21.766;2022-10-10T02:53:29;99452.47;;;2.31;100.00
35226;BME280;21813;49.686;21.766;2022-10-10T02:55:55;99470.38;;;2.34;100.00
35226;BME280;21813;49.686;21.766;2022-10-10T02:58:22;99459.28;;;2.32;100.00
35226;BME280;21813;49.686;21.766;2022-10-10T03:00:50;99455.94;;;2.30;100.00
35226;BME280;21813;49.686;21.766;2022-10-10T03:03:22;99462.56;;;2.37;100.00
35226;BME280;21813;49.686;21.766;2022-10-10T03:05:55;99457.50;;;2.35;100.00
35226;BME280;21813;49.686;21.766;2022-10-10T03:08:22;99460.00;;;2.37;100.00
35226;BME280;21813;49.686;21.766;2022-10-10T03:11:18;99456.53;;;2.38;100.00
35226;BME280;21813;49.686;21.766;2022-10-10T03:13:49;99444.75;;;2.31;100.00
35226;BME280;21813;49.686;21.766;2022-10-10T03:16:32;99452.41;;;2.32;100.00
35226;BME280;21813;49.686;21.766;2022-10-10T03:19:01;99452.50;;;2.29;100.00
35226;BME280;21813;49.686;21.766;2022-10-10T03:21:37;99454.09;;;2.33;100.00
35226;BME280;21813;49.686;21.766;2022-10-10T03:24:07;99451.50;;;2.35;100.00
35226;BME280;21813;49.686;21.766;2022-10-10T03:26:32;99446.34;;;2.35;100.00
35226;BME280;21813;49.686;21.766;2022-10-10T03:29:03;99445.47;;;2.36;100.00
35226;BME280;21813;49.686;21.766;2022-10-10T03:31:34;99447.13;;;2.37;100.00
35226;BME280;21813;49.686;21.766;2022-10-10T03:34:05;99456.16;;;2.50;100.00
35226;BME280;21813;49.686;21.766;2022-10-10T03:36:33;99460.50;;;2.49;100.00
35226;BME280;21813;49.686;21.766;2022-10-10T03:39:00;99457.97;;;2.48;100.00
35226;BME280;21813;49.686;21.766;2022-10-10T03:41:32;99452.78;;;2.49;100.00
35226;BME280;21813;49.686;21.766;2022-10-10T03:43:58;99452.81;;;2.48;100.00
35226;BME280;21813;49.686;21.766;2022-10-10T03:46:24;99466.38;;;2.53;100.00
35226;BME280;21813;49.686;21.766;2022-10-10T03:48:51;99461.31;;;2.50;100.00
35226;BME280;21813;49.686;21.766;2022-10-10T03:51:35;99451.03;;;2.50;100.00
35226;BME280;21813;49.686;21.766;2022-10-10T03:54:21;99447.09;;;2.38;100.00
35226;BME280;21813;49.686;21.766;2022-10-10T03:56:56;99451.31;;;2.41;100.00
35226;BME280;21813;49.686;21.766;2022-10-10T03:59:47;99458.09;;;2.43;100.00
35226;BME280;21813;49.686;21.766;2022-10-10T04:02:33;99454.69;;;2.43;100.00
35226;BME280;21813;49.686;21.766;2022-10-10T04:05:29;99460.66;;;2.43;100.00
35226;BME280;21813;49.686;21.766;2022-10-10T04:08:21;99452.22;;;2.40;100.00
35226;BME280;21813;49.686;21.766;2022-10-10T04:10:51;99457.25;;;2.43;100.00
35226;BME280;21813;49.686;21.766;2022-10-10T04:13:35;99452.16;;;2.41;100.00
35226;BME280;21813;49.686;21.766;2022-10-10T04:16:02;99449.72;;;2.37;100.00
35226;BME280;21813;49.686;21.766;2022-10-10T04:18:33;99459.22;;;2.35;100.00
35226;BME280;21813;49.686;21.766;2022-10-10T04:21:04;99463.75;;;2.27;100.00
35226;BME280;21813;49.686;21.766;2022-10-10T04:23:30;99461.41;;;2.17;100.00
35226;BME280;21813;49.686;21.766;2022-10-10T04:25:57;99460.72;;;2.12;100.00
35226;BME280;21813;49.686;21.766;2022-10-10T04:28:32;99468.50;;;2.09;100.00
35226;BME280;21813;49.686;21.766;2022-10-10T04:30:59;99460.78;;;2.09;100.00
35226;BME280;21813;49.686;21.766;2022-10-10T04:33:27;99458.19;;;2.11;100.00
35226;BME280;21813;49.686;21.766;2022-10-10T04:35:54;99464.97;;;2.13;100.00
35226;BME280;21813;49.686;21.766;2022-10-10T04:38:23;99460.00;;;2.07;100.00
35226;BME280;21813;49.686;21.766;2022-10-10T04:40:51;99461.75;;;2.07;100.00
35226;BME280;21813;49.686;21.766;2022-10-10T04:43:17;99451.53;;;2.04;100.00
35226;BME280;21813;49.686;21.766;2022-10-10T04:45:49;99440.47;;;2.00;100.00
35226;BME280;21813;49.686;21.766;2022-10-10T04:48:15;99445.63;;;2.00;100.00
35226;BME280;21813;49.686;21.766;2022-10-10T04:50:50;99447.66;;;1.89;100.00
35226;BME280;21813;49.686;21.766;2022-10-10T04:53:20;99452.72;;;1.92;100.00
35226;BME280;21813;49.686;21.766;2022-10-10T04:55:54;99446.84;;;1.87;100.00
35226;BME280;21813;49.686;21.766;2022-10-10T04:58:20;99451.91;;;1.90;100.00
35226;BME280;21813;49.686;21.766;2022-10-10T05:00:54;99440.91;;;1.85;100.00
35226;BME280;21813;49.686;21.766;2022-10-10T05:03:21;99449.53;;;1.84;100.00
35226;BME280;21813;49.686;21.766;2022-10-10T05:05:51;99444.53;;;1.78;100.00
35226;BME280;21813;49.686;21.766;2022-10-10T05:08:17;99453.31;;;1.71;100.00
35226;BME280;21813;49.686;21.766;2022-10-10T05:10:52;99436.50;;;1.58;100.00
35226;BME280;21813;49.686;21.766;2022-10-10T05:16:24;99447.63;;;1.58;100.00
35226;BME280;21813;49.686;21.766;2022-10-10T05:18:57;99447.59;;;1.60;100.00
35226;BME280;21813;49.686;21.766;2022-10-10T05:21:40;99442.59;;;1.55;100.00
35226;BME280;21813;49.686;21.766;2022-10-10T05:24:06;99445.91;;;1.59;100.00
35226;BME280;21813;49.686;21.766;2022-10-10T05:26:33;99431.38;;;1.58;100.00
35226;BME280;21813;49.686;21.766;2022-10-10T05:28:58;99447.47;;;1.64;100.00
35226;BME280;21813;49.686;21.766;2022-10-10T05:31:27;99433.09;;;1.57;100.00
35226;BME280;21813;49.686;21.766;2022-10-10T05:33:55;99432.41;;;1.52;100.00
35226;BME280;21813;49.686;21.766;2022-10-10T05:36:22;99440.03;;;1.54;100.00
35226;BME280;21813;49.686;21.766;2022-10-10T05:38:53;99436.72;;;1.50;100.00
35226;BME280;21813;49.686;21.766;2022-10-10T05:41:20;99441.84;;;1.52;100.00
35226;BME280;21813;49.686;21.766;2022-10-10T05:43:52;99440.03;;;1.55;100.00
35226;BME280;21813;49.686;21.766;2022-10-10T05:46:20;99433.91;;;1.59;100.00
35226;BME280;21813;49.686;21.766;2022-10-10T05:48:59;99437.91;;;1.71;100.00
35226;BME280;21813;49.686;21.766;2022-10-10T05:51:26;99431.06;;;1.70;100.00
35226;BME280;21813;49.686;21.766;2022-10-10T05:53:51;99439.50;;;1.75;100.00
35226;BME280;21813;49.686;21.766;2022-10-10T05:56:17;99426.53;;;1.80;100.00
35226;BME280;21813;49.686;21.766;2022-10-10T05:58:43;99424.66;;;1.85;100.00
35226;BME280;21813;49.686;21.766;2022-10-10T06:01:10;99436.47;;;1.90;100.00
35226;BME280;21813;49.686;21.766;2022-10-10T06:03:39;99428.75;;;1.90;100.00
35226;BME280;21813;49.686;21.766;2022-10-10T06:06:06;99419.16;;;1.97;100.00
35226;BME280;21813;49.686;21.766;2022-10-10T06:08:32;99421.59;;;2.01;100.00
35226;BME280;21813;49.686;21.766;2022-10-10T06:11:04;99418.16;;;2.02;100.00
35226;BME280;21813;49.686;21.766;2022-10-10T06:13:30;99421.50;;;2.04;100.00
35226;BME280;21813;49.686;21.766;2022-10-10T06:15:57;99420.50;;;2.10;100.00
35226;BME280;21813;49.686;21.766;2022-10-10T06:18:23;99421.19;;;2.16;100.00
35226;BME280;21813;49.686;21.766;2022-10-10T06:20:50;99415.66;;;2.29;100.00
35226;BME280;21813;49.686;21.766;2022-10-10T06:23:15;99423.81;;;2.43;100.00
35226;BME280;21813;49.686;21.766;2022-10-10T06:25:43;99413.84;;;2.60;100.00
35226;BME280;21813;49.686;21.766;2022-10-10T06:28:10;99418.56;;;2.74;100.00
35226;BME280;21813;49.686;21.766;2022-10-10T06:30:43;99416.38;;;2.88;100.00
35226;BME280;21813;49.686;21.766;2022-10-10T06:33:11;99416.75;;;3.03;100.00
35226;BME280;21813;49.686;21.766;2022-10-10T06:35:42;99412.22;;;3.36;100.00
35226;BME280;21813;49.686;21.766;2022-10-10T06:38:09;99412.13;;;3.87;100.00
35226;BME280;21813;49.686;21.766;2022-10-10T06:40:37;99412.44;;;4.25;100.00
35226;BME280;21813;49.686;21.766;2022-10-10T06:43:04;99408.28;;;4.66;100.00
35226;BME280;21813;49.686;21.766;2022-10-10T06:45:35;99407.78;;;5.20;100.00
35226;BME280;21813;49.686;21.766;2022-10-10T06:48:01;99401.03;;;5.76;100.00
35226;BME280;21813;49.686;21.766;2022-10-10T06:50:30;99397.22;;;6.24;100.00
35226;BME280;21813;49.686;21.766;2022-10-10T06:52:55;99398.41;;;6.72;100.00
35226;BME280;21813;49.686;21.766;2022-10-10T06:55:22;99404.41;;;7.42;100.00
35226;BME280;21813;49.686;21.766;2022-10-10T06:57:48;99401.97;;;8.05;100.00
35226;BME280;21813;49.686;21.766;2022-10-10T07:00:14;99408.41;;;8.47;100.00
35226;BME280;21813;49.686;21.766;2022-10-10T07:02:41;99408.25;;;8.50;99.36
35226;BME280;21813;49.686;21.766;2022-10-10T07:05:10;99398.59;;;8.83;97.33
35226;BME280;21813;49.686;21.766;2022-10-10T07:07:39;99401.50;;;9.52;92.81
35226;BME280;21813;49.686;21.766;2022-10-10T07:10:11;99394.91;;;10.17;89.06
35226;BME280;21813;49.686;21.766;2022-10-10T07:12:37;99392.47;;;10.96;84.88
35226;BME280;21813;49.686;21.766;2022-10-10T07:15:06;99377.09;;;11.83;80.97
35226;BME280;21813;49.686;21.766;2022-10-10T07:17:32;99390.63;;;12.14;78.52
35226;BME280;21813;49.686;21.766;2022-10-10T07:19:59;99388.25;;;11.85;79.27
35226;BME280;21813;49.686;21.766;2022-10-10T07:22:25;99388.72;;;11.27;80.71
35226;BME280;21813;49.686;21.766;2022-10-10T07:24:51;99374.75;;;11.66;80.38
35226;BME280;21813;49.686;21.766;2022-10-10T07:30:32;99369.94;;;15.59;66.07
35226;BME280;21813;49.686;21.766;2022-10-10T07:32:58;99369.88;;;17.09;60.88
35226;BME280;21813;49.686;21.766;2022-10-10T07:35:26;99361.38;;;18.00;58.07
35226;BME280;21813;49.686;21.766;2022-10-10T07:37:53;99362.94;;;19.10;55.46
35226;BME280;21813;49.686;21.766;2022-10-10T07:40:22;99348.31;;;19.93;52.06
35226;BME280;21813;49.686;21.766;2022-10-10T07:42:48;99353.03;;;20.41;50.40
35226;BME280;21813;49.686;21.766;2022-10-10T07:45:18;99354.09;;;20.64;49.68
35226;BME280;21813;49.686;21.766;2022-10-10T07:47:44;99368.03;;;20.66;49.14
35226;BME280;21813;49.686;21.766;2022-10-10T07:50:11;99354.91;;;19.20;52.13
35226;BME280;21813;49.686;21.766;2022-10-10T07:52:39;99359.88;;;17.32;57.23
35226;BME280;21813;49.686;21.766;2022-10-10T07:55:06;99372.34;;;15.62;61.63
35226;BME280;21813;49.686;21.766;2022-10-10T07:57:35;99372.06;;;14.26;67.10
35226;BME280;21813;49.686;21.766;2022-10-10T08:00:06;99369.56;;;13.12;71.49
35226;BME280;21813;49.686;21.766;2022-10-10T08:02:32;99371.97;;;12.31;76.12
35226;BME280;21813;49.686;21.766;2022-10-10T08:05:16;99372.50;;;11.74;78.30
35226;BME280;21813;49.686;21.766;2022-10-10T08:07:50;99371.16;;;11.29;80.71
35226;BME280;21813;49.686;21.766;2022-10-10T08:10:30;99377.50;;;11.00;81.97
35226;BME280;21813;49.686;21.766;2022-10-10T08:12:58;99378.56;;;10.83;82.12
35226;BME280;21813;49.686;21.766;2022-10-10T08:15:24;99378.63;;;10.69;82.38
35226;BME280;21813;49.686;21.766;2022-10-10T08:17:52;99364.44;;;10.46;83.97
35226;BME280;21813;49.686;21.766;2022-10-10T08:20:18;99361.13;;;10.44;83.35
35226;BME280;21813;49.686;21.766;2022-10-10T08:22:44;99375.63;;;10.48;84.55
35226;BME280;21813;49.686;21.766;2022-10-10T08:25:10;99357.69;;;10.30;85.56
35226;BME280;21813;49.686;21.766;2022-10-10T08:27:38;99352.88;;;10.24;86.97
35226;BME280;21813;49.686;21.766;2022-10-10T08:30:13;99343.09;;;10.27;86.68
35226;BME280;21813;49.686;21.766;2022-10-10T08:32:40;99355.34;;;10.39;85.15
35226;BME280;21813;49.686;21.766;2022-10-10T08:35:06;99360.16;;;10.45;86.45
35226;BME280;21813;49.686;21.766;2022-10-10T08:37:33;99350.19;;;10.52;85.97
35226;BME280;21813;49.686;21.766;2022-10-10T08:39:58;99353.88;;;10.62;83.05
35226;BME280;21813;49.686;21.766;2022-10-10T08:42:41;99349.75;;;10.72;83.52
35226;BME280;21813;49.686;21.766;2022-10-10T08:45:12;99345.00;;;10.91;83.19
35226;BME280;21813;49.686;21.766;2022-10-10T08:50:14;99337.44;;;11.14;83.83
35226;BME280;21813;49.686;21.766;2022-10-10T08:52:44;99346.13;;;11.27;82.42
35226;BME280;21813;49.686;21.766;2022-10-10T09:00:55;99341.34;;;11.46;83.67
35226;BME280;21813;49.686;21.766;2022-10-10T09:03:50;99346.84;;;11.67;81.75
35226;BME280;21813;49.686;21.766;2022-10-10T09:06:39;99353.25;;;11.75;82.62
35226;BME280;21813;49.686;21.766;2022-10-10T09:12:43;99338.28;;;11.90;81.89
35226;BME280;21813;49.686;21.766;2022-10-10T12:12:32;99126.03;;;15.93;57.11
35226;BME280;21813;49.686;21.766;2022-10-10T12:15:04;99114.44;;;15.95;57.25
35226;BME280;21813;49.686;21.766;2022-10-10T12:17:51;99115.81;;;15.99;56.90
35226;BME280;21813;49.686;21.766;2022-10-10T12:20:38;99114.00;;;16.00;57.94
35226;BME280;21813;49.686;21.766;2022-10-10T12:32:42;99099.59;;;16.13;51.80
35226;BME280;21813;49.686;21.766;2022-10-10T12:35:40;99076.91;;;16.12;53.79
35226;BME280;21813;49.686;21.766;2022-10-10T12:41:11;99075.66;;;16.16;53.46
35226;BME280;21813;49.686;21.766;2022-10-10T12:46:34;99076.34;;;16.18;53.05
35226;BME280;21813;49.686;21.766;2022-10-10T12:49:01;99070.81;;;16.21;52.44
35226;BME280;21813;49.686;21.766;2022-10-10T12:51:31;99066.91;;;16.25;53.71
35226;BME280;21813;49.686;21.766;2022-10-10T12:54:00;99068.16;;;16.31;54.99
35226;BME280;21813;49.686;21.766;2022-10-10T13:00:53;99046.38;;;16.39;53.44
35226;BME280;21813;49.686;21.766;2022-10-10T13:03:44;99051.34;;;16.42;53.47
35226;BME280;21813;49.686;21.766;2022-10-10T13:09:12;99037.09;;;16.44;53.62
35226;BME280;21813;49.686;21.766;2022-10-10T13:11:58;99032.38;;;16.48;54.26
35226;BME280;21813;49.686;21.766;2022-10-10T13:14:43;99043.59;;;16.50;54.34
35226;BME280;21813;49.686;21.766;2022-10-10T13:17:27;99044.56;;;16.49;54.42
35226;BME280;21813;49.686;21.766;2022-10-10T13:19:56;99034.03;;;16.49;53.35
35226;BME280;21813;49.686;21.766;2022-10-10T13:22:30;99044.56;;;16.49;54.10
35226;BME280;21813;49.686;21.766;2022-10-10T13:25:09;99029.75;;;16.48;53.61
35226;BME280;21813;49.686;21.766;2022-10-10T13:27:35;99029.19;;;16.54;51.41
35226;BME280;21813;49.686;21.766;2022-10-10T13:30:01;99031.41;;;16.49;52.26
35226;BME280;21813;49.686;21.766;2022-10-10T13:32:32;99031.00;;;16.44;52.80
35226;BME280;21813;49.686;21.766;2022-10-10T13:35:06;99030.03;;;16.45;53.06
35226;BME280;21813;49.686;21.766;2022-10-10T13:37:39;99018.56;;;16.36;53.31
35226;BME280;21813;49.686;21.766;2022-10-10T13:40:12;99022.84;;;16.37;53.74
35226;BME280;21813;49.686;21.766;2022-10-10T13:42:39;99019.00;;;16.31;53.96
35226;BME280;21813;49.686;21.766;2022-10-10T13:48:09;99022.03;;;16.37;53.96
35226;BME280;21813;49.686;21.766;2022-10-10T13:53:46;99014.53;;;16.42;52.38
35226;BME280;21813;49.686;21.766;2022-10-10T13:56:45;99021.44;;;16.43;52.61
35226;BME280;21813;49.686;21.766;2022-10-10T14:03:27;99009.56;;;16.39;53.17
35226;BME280;21813;49.686;21.766;2022-10-10T14:11:52;99005.56;;;16.34;54.04
35226;BME280;21813;49.686;21.766;2022-10-10T14:14:49;98999.34;;;16.26;53.66
35226;BME280;21813;49.686;21.766;2022-10-10T14:17:16;99005.44;;;16.26;53.73
35226;BME280;21813;49.686;21.766;2022-10-10T14:19:52;99007.13;;;16.27;53.69
35226;BME280;21813;49.686;21.766;2022-10-10T14:22:21;99004.75;;;16.24;53.65
35226;BME280;21813;49.686;21.766;2022-10-10T14:24:47;98993.56;;;16.22;52.85
35226;BME280;21813;49.686;21.766;2022-10-10T14:40:52;98987.47;;;16.12;52.33
35226;BME280;21813;49.686;21.766;2022-10-10T15:10:37;98958.75;;;15.82;45.12
35226;BME280;21813;49.686;21.766;2022-10-10T15:13:03;98966.91;;;15.79;44.92
35226;BME280;21813;49.686;21.766;2022-10-10T15:16:00;98958.75;;;15.72;44.72
35226;BME280;21813;49.686;21.766;2022-10-10T15:18:25;98956.84;;;15.65;44.79
35226;BME280;21813;49.686;21.766;2022-10-10T15:21:11;98963.06;;;15.64;45.18
35226;BME280;21813;49.686;21.766;2022-10-10T15:23:37;98962.66;;;15.59;45.69
35226;BME280;21813;49.686;21.766;2022-10-10T15:26:05;98953.78;;;15.50;46.28
35226;BME280;21813;49.686;21.766;2022-10-10T15:28:31;98952.38;;;15.46;46.17
35226;BME280;21813;49.686;21.766;2022-10-10T15:30:58;98959.03;;;15.40;46.94
35226;BME280;21813;49.686;21.766;2022-10-10T15:33:27;98955.44;;;15.32;47.35
35226;BME280;21813;49.686;21.766;2022-10-10T15:36:01;98969.94;;;15.26;47.93
35226;BME280;21813;49.686;21.766;2022-10-10T15:38:29;98954.03;;;15.18;48.68
35226;BME280;21813;49.686;21.766;2022-10-10T15:41:09;98963.84;;;15.07;49.36
35226;BME280;21813;49.686;21.766;2022-10-10T15:46:49;98964.66;;;14.88;50.99
35226;BME280;21813;49.686;21.766;2022-10-10T16:04:16;98968.44;;;14.04;55.58
35226;BME280;21813;49.686;21.766;2022-10-10T16:07:24;98979.22;;;13.90;55.99
35226;BME280;21813;49.686;21.766;2022-10-10T16:09:53;98976.09;;;13.75;56.85
35226;BME280;21813;49.686;21.766;2022-10-10T16:16:08;98978.00;;;13.52;59.19
35226;BME280;21813;49.686;21.766;2022-10-10T16:22:56;98985.75;;;13.22;61.01
35226;BME280;21813;49.686;21.766;2022-10-10T16:25:32;98989.09;;;13.13;61.48
35226;BME280;21813;49.686;21.766;2022-10-10T16:27:58;98987.19;;;13.04;62.18
35226;BME280;21813;49.686;21.766;2022-10-10T16:30:23;98979.34;;;12.93;62.74
35226;BME280;21813;49.686;21.766;2022-10-10T16:32:53;98978.88;;;12.88;63.56
35226;BME280;21813;49.686;21.766;2022-10-10T16:35:21;98979.03;;;12.75;64.33
35226;BME280;21813;49.686;21.766;2022-10-10T16:37:58;98976.31;;;12.65;65.10
35226;BME280;21813;49.686;21.766;2022-10-10T16:40:24;98984.63;;;12.59;65.28
35226;BME280;21813;49.686;21.766;2022-10-10T16:42:51;98984.41;;;12.51;65.31
35226;BME280;21813;49.686;21.766;2022-10-10T16:56:46;98976.06;;;12.13;68.60
35226;BME280;21813;49.686;21.766;2022-10-10T16:59:13;98980.94;;;12.06;69.02
35226;BME280;21813;49.686;21.766;2022-10-10T17:01:39;98979.84;;;11.98;68.90
35226;BME280;21813;49.686;21.766;2022-10-10T17:04:06;98977.47;;;11.94;69.37
35226;BME280;21813;49.686;21.766;2022-10-10T17:06:31;98972.00;;;11.86;69.41
35226;BME280;21813;49.686;21.766;2022-10-10T17:09:10;98983.63;;;11.82;70.49
35226;BME280;21813;49.686;21.766;2022-10-10T17:11:42;98970.06;;;11.77;70.54
35226;BME280;21813;49.686;21.766;2022-10-10T17:14:09;98970.31;;;11.74;70.85
35226;BME280;21813;49.686;21.766;2022-10-10T17:16:35;98967.81;;;11.73;71.14
35226;BME280;21813;49.686;21.766;2022-10-10T17:19:01;98968.81;;;11.70;71.53
35226;BME280;21813;49.686;21.766;2022-10-10T17:21:33;98966.34;;;11.69;72.07
35226;BME280;21813;49.686;21.766;2022-10-10T17:23:58;98970.00;;;11.66;72.28
35226;BME280;21813;49.686;21.766;2022-10-10T17:26:24;98962.84;;;11.57;72.62
35226;BME280;21813;49.686;21.766;2022-10-10T17:28:54;98966.41;;;11.56;72.90
35226;BME280;21813;49.686;21.766;2022-10-10T17:31:21;98971.03;;;11.52;73.50
35226;BME280;21813;49.686;21.766;2022-10-10T17:33:47;98961.84;;;11.47;73.83
35226;BME280;21813;49.686;21.766;2022-10-10T17:36:19;98966.63;;;11.42;74.61
35226;BME280;21813;49.686;21.766;2022-10-10T17:38:46;98963.63;;;11.35;74.97
35226;BME280;21813;49.686;21.766;2022-10-10T17:41:14;98962.28;;;11.30;75.95
35226;BME280;21813;49.686;21.766;2022-10-10T17:43:41;98959.41;;;11.22;75.66
35226;BME280;21813;49.686;21.766;2022-10-10T17:46:10;98954.41;;;11.19;75.31
35226;BME280;21813;49.686;21.766;2022-10-10T17:48:37;98956.28;;;11.17;76.03
35226;BME280;21813;49.686;21.766;2022-10-10T17:51:09;98954.75;;;11.14;76.54
35226;BME280;21813;49.686;21.766;2022-10-10T17:53:36;98950.56;;;11.12;76.66
35226;BME280;21813;49.686;21.766;2022-10-10T17:56:23;98951.66;;;11.09;77.43
35226;BME280;21813;49.686;21.766;2022-10-10T17:59:16;98951.47;;;10.99;77.71
35226;BME280;21813;49.686;21.766;2022-10-10T18:01:51;98952.75;;;10.94;78.41
35226;BME280;21813;49.686;21.766;2022-10-10T18:04:16;98946.53;;;10.84;79.08
35226;BME280;21813;49.686;21.766;2022-10-10T18:07:15;98948.75;;;10.77;79.34
35226;BME280;21813;49.686;21.766;2022-10-10T18:09:53;98943.22;;;10.69;79.92
35226;BME280;21813;49.686;21.766;2022-10-10T18:12:20;98942.09;;;10.60;80.43
35226;BME280;21813;49.686;21.766;2022-10-10T18:15:15;98945.97;;;10.55;80.54
35226;BME280;21813;49.686;21.766;2022-10-10T18:17:52;98946.19;;;10.52;81.39
35226;BME280;21813;49.686;21.766;2022-10-10T18:20:17;98951.72;;;10.47;81.83
35226;BME280;21813;49.686;21.766;2022-10-10T18:22:45;98948.72;;;10.41;81.91
35226;BME280;21813;49.686;21.766;2022-10-10T18:25:10;98948.84;;;10.39;82.86
35226;BME280;21813;49.686;21.766;2022-10-10T18:31:24;98941.47;;;10.21;83.85
35226;BME280;21813;49.686;21.766;2022-10-10T18:34:38;98948.75;;;10.15;83.88
35226;BME280;21813;49.686;21.766;2022-10-10T18:37:17;98938.72;;;10.09;85.01
35226;BME280;21813;49.686;21.766;2022-10-10T18:39:52;98927.91;;;10.03;85.43
35226;BME280;21813;49.686;21.766;2022-10-10T18:48:05;98933.31;;;9.87;86.39
35226;BME280;21813;49.686;21.766;2022-10-10T18:50:34;98929.97;;;9.85;86.89
35226;BME280;21813;49.686;21.766;2022-10-10T18:53:18;98923.22;;;9.83;87.38
35226;BME280;21813;49.686;21.766;2022-10-10T18:55:53;98916.47;;;9.80;87.50
35226;BME280;21813;49.686;21.766;2022-10-10T18:58:23;98924.16;;;9.82;87.90
35226;BME280;21813;49.686;21.766;2022-10-10T19:01:23;98921.84;;;9.77;87.94
35226;BME280;21813;49.686;21.766;2022-10-10T19:04:08;98919.56;;;9.72;88.44
35226;BME280;21813;49.686;21.766;2022-10-10T19:06:40;98919.16;;;9.66;88.90
35226;BME280;21813;49.686;21.766;2022-10-10T19:09:15;98911.84;;;9.58;89.33
35226;BME280;21813;49.686;21.766;2022-10-10T19:11:44;98910.59;;;9.51;89.44